This is the latest recevied weather packets stored in our database for station/object KC8TAI. If no packets are shown the sender has not sent any weather packets the latest 10 day(s).
| Time | Temp. | Humidity | Pressure | Rain* | Wind** | Luminosity | Snow |
|---|---|---|---|---|---|---|---|
| 1777236358 | 18.33° C | 60% | 1017.5 hPa | 0 mm | - | 566 W/m² | - |
| 1777234536 | 17.78° C | 63% | 1017.4 hPa | 0 mm | - | 665 W/m² | - |
| 1777232716 | 17.22° C | 64% | 1017.6 hPa | 0 mm | - | 641 W/m² | - |
| 1777226718 | 15° C | 72% | 1018.1 hPa | 0 mm | - | 851 W/m² | - |
| 1777216517 | 11.67° C | 84% | 1018.8 hPa | 0 mm | - | 409 W/m² | - |
| 1777211716 | 9.44° C | 92% | 1018.3 hPa | 0 mm | - | 148 W/m² | - |
| 1777210536 | 8.89° C | 93% | 1018.1 hPa | 0 mm | - | 113 W/m² | - |
| 1777206317 | 8.33° C | 94% | 1017.7 hPa | 0 mm | - | 56 W/m² | - |
| 1777205118 | 8.33° C | 94% | 1017.4 hPa | 0 mm | - | 47 W/m² | - |
| 1777202718 | 8.33° C | 95% | 1016.9 hPa | 0 mm | - | 21 W/m² | - |
| 1777200939 | 8.33° C | 95% | 1016.4 hPa | 0 mm | - | 6 W/m² | - |
| 1777199719 | 7.78° C | 95% | 1016.1 hPa | 0 mm | - | 2 W/m² | - |
| 1777199119 | 7.78° C | 95% | 1016 hPa | 0 mm | - | 1 W/m² | - |
| 1777198519 | 7.78° C | 95% | 1015.8 hPa | 0 mm | - | 0 W/m² | - |
| 1777196120 | 7.78° C | 94% | 1015.5 hPa | 0 mm | - | 0 W/m² | - |
| 1777195520 | 7.78° C | 94% | 1015.4 hPa | 0 mm | - | 0 W/m² | - |
| 1777194320 | 8.33° C | 94% | 1015.1 hPa | 0 mm | - | 0 W/m² | - |
| 1777193121 | 8.33° C | 93% | 1015 hPa | 0 mm | - | 0 W/m² | - |
| 1777190121 | 8.89° C | 92% | 1014.5 hPa | 0 mm | - | 0 W/m² | - |
| 1777185943 | 9.44° C | 92% | 1014.2 hPa | 0 mm | - | 0 W/m² | - |
| 1777182923 | 9.44° C | 92% | 1014.3 hPa | 0 mm | - | 0 W/m² | - |
| 1777181124 | 10° C | 91% | 1014.3 hPa | 0 mm | - | 0 W/m² | - |
| 1777179924 | 10.56° C | 89% | 1014.2 hPa | 0 mm | - | 0 W/m² | - |
| 1777170338 | 12.78° C | 91% | 1013.3 hPa | 0 mm | - | 0 W/m² | - |
| 1777168516 | 12.78° C | 89% | 1013.2 hPa | 0 mm | - | 0 W/m² | - |
* Rain latest hour (hover to see other rain measurements)
** Current wind speed in m/s (hover to see current wind gust speed)